Time;durP1;ratioP1;P1;durP2;ratioP2;P2;SDS_P1;SDS_P2;PMS_P1;PMS_P2;Temp;Humidity;BMP_temperature;BMP_pressure;BME280_temperature;BME280_humidity;BME280_pressure;Samples;Min_cycle;Max_cycle;Signal;HPM_P1;HPM_P2
2023/12/28 00:00:23;;;;;;;32.20;14.50;;;;;;;1.45;66.97;99600.38;105527;1258;96677;-71
2023/12/28 00:03:11;;;;;;;34.60;16.30;;;;;;;1.46;67.38;99600.00;105557;1257;112891;-70
2023/12/28 00:05:39;;;;;;;35.20;16.50;;;;;;;1.41;67.25;99594.55;106755;1254;96641;-71
2023/12/28 00:08:07;;;;;;;33.70;16.70;;;;;;;1.41;67.34;99597.52;105372;1272;107221;-71
2023/12/28 00:10:37;;;;;;;36.40;17.00;;;;;;;1.39;67.20;99604.04;105378;1260;96678;-70
2023/12/28 00:13:05;;;;;;;33.70;16.40;;;;;;;1.40;67.20;99609.60;105437;1257;96677;-70
2023/12/28 00:15:33;;;;;;;36.90;15.90;;;;;;;1.42;67.40;99601.00;105499;1257;109464;-71
2023/12/28 00:18:00;;;;;;;37.90;16.80;;;;;;;1.38;67.45;99600.21;105491;1273;96521;-70
2023/12/28 00:20:29;;;;;;;31.80;15.80;;;;;;;1.38;67.27;99610.55;105271;1260;107028;-70
2023/12/28 00:22:58;;;;;;;36.80;16.10;;;;;;;1.38;67.31;99595.67;105510;1255;96524;-71
2023/12/28 00:25:26;;;;;;;33.90;17.20;;;;;;;1.37;67.53;99589.59;105267;1258;97473;-70
2023/12/28 00:27:54;;;;;;;40.90;17.30;;;;;;;1.36;67.40;99590.48;105394;1254;110585;-70
2023/12/28 00:30:22;;;;;;;36.20;19.10;;;;;;;1.34;67.42;99587.75;105436;1256;96626;-71
2023/12/28 00:32:50;;;;;;;36.60;16.80;;;;;;;1.32;67.51;99583.73;105471;1254;107602;-70
2023/12/28 00:35:18;;;;;;;38.00;17.70;;;;;;;1.32;67.71;99583.06;105191;1258;96710;-71
2023/12/28 00:37:46;;;;;;;36.20;17.20;;;;;;;1.26;67.26;99580.05;105187;1257;97144;-70
2023/12/28 00:40:14;;;;;;;37.40;18.60;;;;;;;1.26;67.64;99589.70;105011;1260;109960;-70
2023/12/28 00:42:42;;;;;;;35.90;17.00;;;;;;;1.24;67.50;99594.45;105246;1257;96613;-72
2023/12/28 00:45:10;;;;;;;36.50;17.20;;;;;;;1.23;67.62;99594.85;105561;1267;107658;-70
2023/12/28 00:47:38;;;;;;;32.10;15.30;;;;;;;1.25;67.89;99580.62;105370;1254;97326;-70
2023/12/28 00:50:06;;;;;;;34.50;15.20;;;;;;;1.27;68.13;99577.77;105567;1258;97185;-71
2023/12/28 00:52:35;;;;;;;36.90;15.60;;;;;;;1.31;67.94;99581.35;105415;1257;109517;-71
2023/12/28 00:55:03;;;;;;;34.70;15.70;;;;;;;1.37;68.07;99578.77;105487;1257;96641;-71
2023/12/28 00:57:31;;;;;;;35.20;15.80;;;;;;;1.41;68.26;99575.85;105420;1254;106058;-70
2023/12/28 00:59:59;;;;;;;33.20;15.30;;;;;;;1.44;68.35;99571.74;105420;1254;96622;-71
2023/12/28 01:02:27;;;;;;;34.10;16.30;;;;;;;1.50;68.42;99563.38;105288;1267;96744;-71
2023/12/28 01:04:55;;;;;;;31.50;14.50;;;;;;;1.55;68.20;99561.14;105204;1260;110045;-71
2023/12/28 01:07:23;;;;;;;33.10;17.30;;;;;;;1.60;68.55;99555.92;105431;1257;97055;-70
2023/12/28 01:09:51;;;;;;;35.00;16.60;;;;;;;1.63;68.39;99556.19;105655;1257;108957;-72
2023/12/28 01:12:19;;;;;;;30.40;15.30;;;;;;;1.67;68.52;99552.07;105498;1257;96607;-72
2023/12/28 01:14:47;;;;;;;30.20;15.50;;;;;;;1.70;68.47;99547.09;105140;1253;96615;-71
2023/12/28 01:17:14;;;;;;;33.10;16.80;;;;;;;1.74;68.45;99551.52;105144;1258;110059;-71
2023/12/28 01:19:42;;;;;;;30.90;15.50;;;;;;;1.77;68.75;99552.64;105344;1259;96527;-71
2023/12/28 01:22:10;;;;;;;31.70;15.90;;;;;;;1.82;68.56;99552.71;105296;1253;106188;-71
2023/12/28 01:24:38;;;;;;;31.00;15.30;;;;;;;1.84;68.48;99561.36;105323;1254;96644;-69
2023/12/28 01:27:06;;;;;;;33.10;16.10;;;;;;;1.88;68.76;99572.27;105373;1254;96634;-70
2023/12/28 01:29:34;;;;;;;30.10;14.50;;;;;;;1.90;68.62;99574.14;105410;1256;110502;-71
2023/12/28 01:32:03;;;;;;;32.10;15.10;;;;;;;1.92;68.32;99565.17;105241;1253;97821;-71
2023/12/28 01:34:31;;;;;;;29.80;14.80;;;;;;;1.95;68.56;99564.55;105228;1254;105492;-69
2023/12/28 01:36:59;;;;;;;33.20;15.20;;;;;;;1.97;68.34;99558.39;105476;1260;96609;-70
2023/12/28 01:39:27;;;;;;;29.90;15.00;;;;;;;1.94;68.97;99559.35;105129;1257;97164;-70
2023/12/28 01:41:55;;;;;;;32.20;15.40;;;;;;;1.91;68.38;99546.11;105291;1257;109981;-71
2023/12/28 01:44:23;;;;;;;30.50;14.50;;;;;;;1.91;68.89;99543.51;105578;1257;96737;-73
2023/12/28 01:46:51;;;;;;;28.90;13.80;;;;;;;1.93;68.74;99533.30;105208;1257;107418;-71
2023/12/28 01:49:19;;;;;;;29.80;13.60;;;;;;;1.95;68.94;99532.03;105371;1257;96661;-71
2023/12/28 01:51:48;;;;;;;27.90;12.30;;;;;;;1.98;68.66;99529.84;105266;1257;96678;-69
2023/12/28 01:54:17;;;;;;;26.10;12.40;;;;;;;2.02;68.36;99520.28;105309;1257;109538;-70
2023/12/28 01:56:45;;;;;;;25.30;11.40;;;;;;;2.05;68.87;99508.98;105306;1257;96641;-70
2023/12/28 01:59:13;;;;;;;23.40;10.70;;;;;;;2.05;69.24;99508.28;105512;1256;108160;-71
2023/12/28 02:01:41;;;;;;;26.30;11.70;;;;;;;2.06;69.28;99499.66;105559;1253;96677;-71
2023/12/28 02:04:09;;;;;;;23.10;10.00;;;;;;;2.11;69.43;99490.27;105128;1254;96543;-71
2023/12/28 02:06:38;;;;;;;22.90;10.00;;;;;;;2.15;69.51;99476.82;105466;1257;109953;-71
2023/12/28 02:09:05;;;;;;;22.00;10.00;;;;;;;2.20;69.67;99464.43;105281;1257;97201;-70
2023/12/28 02:11:33;;;;;;;22.20;10.30;;;;;;;2.23;69.50;99455.92;105526;1258;107278;-70
2023/12/28 02:14:01;;;;;;;24.40;10.50;;;;;;;2.26;69.37;99447.09;105308;1270;96660;-70
2023/12/28 02:16:33;;;;;;;26.30;11.60;;;;;;;2.28;69.88;99440.20;105327;1257;96677;-71
2023/12/28 02:19:16;;;;;;;25.70;11.10;;;;;;;2.29;69.68;99438.39;105176;1257;110055;-71
2023/12/28 02:21:45;;;;;;;25.50;10.40;;;;;;;2.32;69.58;99429.58;105331;1253;96703;-70
2023/12/28 02:24:13;;;;;;;22.10;9.60;;;;;;;2.33;69.68;99437.92;105740;1253;107690;-71
2023/12/28 02:26:41;;;;;;;25.00;11.40;;;;;;;2.35;69.51;99438.73;105290;1256;96545;-71
2023/12/28 02:29:09;;;;;;;23.20;10.30;;;;;;;2.38;69.43;99433.05;105704;1253;96743;-71
2023/12/28 02:31:49;;;;;;;24.10;10.40;;;;;;;2.38;69.57;99432.34;105406;1270;110132;-70
2023/12/28 02:34:25;;;;;;;24.10;11.30;;;;;;;2.39;69.69;99430.04;105230;1257;97395;-71
2023/12/28 02:36:56;;;;;;;23.50;10.10;;;;;;;2.40;69.89;99427.73;105563;1256;107162;-70
2023/12/28 02:39:25;;;;;;;23.70;10.00;;;;;;;2.42;69.83;99410.88;105485;1257;96689;-70
2023/12/28 02:41:55;;;;;;;23.40;10.60;;;;;;;2.42;69.99;99410.16;105362;1254;96728;-70
2023/12/28 02:44:23;;;;;;;26.70;10.30;;;;;;;2.43;69.84;99401.57;105041;1259;109700;-70
2023/12/28 02:46:51;;;;;;;23.00;10.10;;;;;;;2.42;69.52;99392.67;105513;1257;96619;-71
2023/12/28 02:49:19;;;;;;;22.70;10.50;;;;;;;2.41;70.21;99391.47;105615;1253;107634;-71
2023/12/28 02:51:47;;;;;;;24.90;10.90;;;;;;;2.41;70.12;99390.27;105278;1253;96627;-70
2023/12/28 02:54:15;;;;;;;24.30;10.80;;;;;;;2.37;70.15;99388.61;105244;1257;96784;-71
2023/12/28 02:56:43;;;;;;;24.50;10.20;;;;;;;2.35;70.11;99386.23;105182;1257;109010;-70
2023/12/28 02:59:11;;;;;;;21.40;10.10;;;;;;;2.34;70.04;99388.73;105242;1253;97934;-71
2023/12/28 03:01:39;;;;;;;23.40;11.00;;;;;;;2.32;70.15;99388.63;105673;1259;107636;-72
2023/12/28 03:04:09;;;;;;;21.50;9.60;;;;;;;2.30;70.77;99394.10;105277;1257;97939;-70
2023/12/28 03:06:39;;;;;;;21.60;10.00;;;;;;;2.29;70.44;99385.91;105453;1253;96492;-72
2023/12/28 03:09:07;;;;;;;22.70;10.40;;;;;;;2.30;70.16;99382.05;105104;1257;111032;-72
2023/12/28 03:11:35;;;;;;;24.40;10.90;;;;;;;2.31;70.46;99380.42;105621;1257;97171;-69
2023/12/28 03:14:03;;;;;;;24.00;10.60;;;;;;;2.32;70.36;99378.98;105383;1271;107307;-70
2023/12/28 03:16:31;;;;;;;19.60;8.90;;;;;;;2.33;69.89;99380.52;105171;1257;97942;-70
2023/12/28 03:19:02;;;;;;;22.00;10.40;;;;;;;2.35;70.20;99371.71;106154;1256;96636;-71
2023/12/28 03:21:30;;;;;;;22.40;10.10;;;;;;;2.36;70.19;99363.09;105014;1259;109962;-71
2023/12/28 03:23:58;;;;;;;22.50;9.70;;;;;;;2.37;70.40;99355.36;105441;1256;96603;-70
2023/12/28 03:26:25;;;;;;;21.90;10.00;;;;;;;2.37;70.17;99355.70;105270;1257;105846;-70
2023/12/28 03:28:53;;;;;;;23.40;10.00;;;;;;;2.41;70.33;99356.30;105574;1257;97834;-69
2023/12/28 03:31:21;;;;;;;21.30;10.20;;;;;;;2.44;70.87;99349.52;105180;1270;96613;-70
2023/12/28 03:33:49;;;;;;;22.20;9.50;;;;;;;2.51;70.53;99345.09;105115;1268;109542;-71
2023/12/28 03:36:19;;;;;;;23.30;10.10;;;;;;;2.56;70.64;99337.55;105494;1256;96949;-71
2023/12/28 03:38:47;;;;;;;22.20;9.20;;;;;;;2.63;71.59;99339.04;105312;1253;107924;-71
2023/12/28 03:41:19;;;;;;;26.00;9.80;;;;;;;2.70;71.33;99341.45;105199;1259;96994;-70
2023/12/28 03:43:48;;;;;;;23.00;9.50;;;;;;;2.76;71.30;99334.92;105422;1260;97958;-71
2023/12/28 03:46:16;;;;;;;20.70;8.80;;;;;;;2.84;71.58;99333.05;105261;1253;109685;-70
2023/12/28 03:48:44;;;;;;;21.30;9.40;;;;;;;2.91;71.33;99329.66;105423;1257;97923;-69
2023/12/28 03:51:16;;;;;;;20.70;9.60;;;;;;;2.95;70.91;99320.38;105497;1253;106255;-72
2023/12/28 03:53:44;;;;;;;20.20;8.90;;;;;;;3.01;71.49;99316.50;105381;1257;96616;-69
2023/12/28 03:56:19;;;;;;;20.70;8.90;;;;;;;3.05;71.49;99315.28;105504;1258;96604;-72
2023/12/28 03:58:47;;;;;;;21.70;10.60;;;;;;;3.10;71.24;99309.14;105399;1256;109699;-70
2023/12/28 04:01:16;;;;;;;20.00;9.00;;;;;;;3.14;71.28;99296.73;105619;1258;96784;-70
2023/12/28 04:03:44;;;;;;;21.00;9.20;;;;;;;3.18;71.36;99292.55;105421;1266;106546;-70
2023/12/28 04:06:13;;;;;;;22.80;9.80;;;;;;;3.23;71.69;99288.85;105312;1257;96562;-69
2023/12/28 04:08:42;;;;;;;19.90;8.00;;;;;;;3.27;71.57;99285.19;105314;1257;96623;-71
2023/12/28 04:11:10;;;;;;;20.00;9.10;;;;;;;3.31;71.77;99281.38;105151;1255;110052;-70
2023/12/28 04:13:39;;;;;;;19.90;8.70;;;;;;;3.33;71.67;99279.35;105436;1253;96531;-70
2023/12/28 04:16:07;;;;;;;20.50;8.60;;;;;;;3.36;71.62;99276.24;105160;1257;105889;-71
2023/12/28 04:18:34;;;;;;;23.10;8.80;;;;;;;3.39;71.71;99281.38;105196;1253;96799;-71
2023/12/28 04:21:03;;;;;;;23.70;8.90;;;;;;;3.43;71.33;99275.61;105454;1257;96616;-70
2023/12/28 04:23:31;;;;;;;21.60;9.00;;;;;;;3.47;71.21;99270.54;105381;1253;108652;-71
2023/12/28 04:25:59;;;;;;;21.30;8.10;;;;;;;3.50;71.84;99263.57;105335;1254;97002;-71
2023/12/28 04:28:27;;;;;;;23.60;8.60;;;;;;;3.53;71.47;99267.66;105050;1259;107346;-72
2023/12/28 04:30:54;;;;;;;20.00;8.80;;;;;;;3.55;71.97;99269.88;105223;1257;97837;-72
2023/12/28 04:33:22;;;;;;;19.40;9.30;;;;;;;3.56;71.79;99269.30;105274;1259;96633;-72
2023/12/28 04:35:50;;;;;;;23.50;9.20;;;;;;;3.60;71.56;99259.86;105301;1257;109649;-73
2023/12/28 04:38:18;;;;;;;21.90;8.00;;;;;;;3.62;71.64;99259.59;105140;1253;96646;-69
2023/12/28 04:40:46;;;;;;;19.40;9.10;;;;;;;3.64;71.51;99260.41;105417;1269;107716;-71
2023/12/28 04:43:14;;;;;;;19.70;8.80;;;;;;;3.66;71.55;99264.20;105401;1257;96716;-70
2023/12/28 04:45:42;;;;;;;19.80;8.20;;;;;;;3.68;71.43;99263.23;105198;1259;96584;-69
2023/12/28 04:48:10;;;;;;;22.20;8.60;;;;;;;3.69;71.57;99257.73;105484;1257;109983;-71
2023/12/28 04:50:38;;;;;;;20.90;8.90;;;;;;;3.70;71.54;99262.09;105631;1254;96658;-71
2023/12/28 04:53:06;;;;;;;20.20;7.90;;;;;;;3.71;71.66;99258.36;105530;1257;108013;-73
2023/12/28 04:55:34;;;;;;;20.60;8.90;;;;;;;3.71;71.58;99253.45;105490;1254;96623;-71
2023/12/28 04:58:02;;;;;;;18.20;7.90;;;;;;;3.70;71.76;99253.64;105133;1257;96587;-71
2023/12/28 05:00:30;;;;;;;19.80;8.20;;;;;;;3.72;71.93;99253.23;105084;1260;109493;-69
2023/12/28 05:02:58;;;;;;;20.50;8.20;;;;;;;3.74;71.50;99249.45;105558;1254;97506;-73
2023/12/28 05:05:26;;;;;;;19.80;8.60;;;;;;;3.76;71.80;99242.39;105113;1255;106145;-74
2023/12/28 05:07:54;;;;;;;19.40;8.60;;;;;;;3.75;71.65;99232.23;105415;1257;96548;-73
2023/12/28 05:10:23;;;;;;;22.30;9.50;;;;;;;3.75;72.18;99231.35;105157;1260;96789;-74
2023/12/28 05:12:51;;;;;;;20.70;8.60;;;;;;;3.76;71.79;99233.61;105455;1256;110109;-73
2023/12/28 05:15:19;;;;;;;23.20;9.50;;;;;;;3.75;71.71;99238.02;105474;1257;96525;-73
2023/12/28 05:17:47;;;;;;;19.30;7.80;;;;;;;3.73;71.82;99242.11;105137;1262;106389;-72
2023/12/28 05:20:16;;;;;;;17.20;7.70;;;;;;;3.74;71.65;99241.92;105368;1257;96637;-70
2023/12/28 05:22:43;;;;;;;20.00;8.10;;;;;;;3.76;71.80;99242.02;105506;1256;96553;-71
2023/12/28 05:25:12;;;;;;;19.00;8.50;;;;;;;3.76;71.89;99244.12;105601;1256;110235;-72
2023/12/28 05:27:42;;;;;;;22.70;9.50;;;;;;;3.76;71.70;99249.55;105897;1257;96751;-70
2023/12/28 05:30:11;;;;;;;22.20;8.70;;;;;;;3.77;71.88;99254.45;108558;1253;107552;-68
2023/12/28 05:32:40;;;;;;;20.40;8.10;;;;;;;3.77;71.78;99251.45;106553;1257;97514;-70
2023/12/28 05:35:08;;;;;;;18.20;8.10;;;;;;;3.78;71.56;99250.73;105430;1259;96636;-69
2023/12/28 05:37:36;;;;;;;19.30;8.40;;;;;;;3.81;71.99;99252.70;105257;1254;109630;-69
2023/12/28 05:40:04;;;;;;;18.60;8.40;;;;;;;3.83;71.77;99250.33;105610;1256;96613;-69
2023/12/28 05:42:32;;;;;;;19.70;8.90;;;;;;;3.84;72.06;99249.23;105563;1257;106624;-69
2023/12/28 05:45:00;;;;;;;20.30;8.50;;;;;;;3.85;71.87;99243.40;105352;1257;96689;-68
2023/12/28 05:47:28;;;;;;;18.10;8.00;;;;;;;3.87;72.11;99245.58;105204;1259;96636;-70
2023/12/28 05:49:56;;;;;;;18.00;7.90;;;;;;;3.91;72.27;99241.91;105421;1255;109948;-70
2023/12/28 05:52:24;;;;;;;19.70;8.60;;;;;;;3.94;72.01;99240.02;105207;1272;97180;-69
2023/12/28 05:54:51;;;;;;;22.00;9.00;;;;;;;3.96;72.17;99249.09;105509;1254;108705;-70
2023/12/28 05:57:20;;;;;;;20.10;8.40;;;;;;;3.98;72.12;99244.78;105114;1253;98250;-71
2023/12/28 05:59:48;;;;;;;17.90;7.90;;;;;;;3.99;71.89;99243.52;105139;1254;96606;-71
2023/12/28 06:02:16;;;;;;;19.10;8.50;;;;;;;3.99;72.03;99243.86;105496;1255;109514;-68
2023/12/28 06:04:44;;;;;;;21.00;8.40;;;;;;;3.99;71.87;99252.64;105215;1257;97852;-69
2023/12/28 06:07:12;;;;;;;22.20;9.90;;;;;;;3.99;72.50;99255.06;105001;1259;107742;-69
2023/12/28 06:09:40;;;;;;;23.00;11.50;;;;;;;4.02;72.48;99246.35;105139;1269;96685;-68
2023/12/28 06:12:08;;;;;;;23.60;10.10;;;;;;;4.03;72.11;99250.69;105307;1258;96631;-71
2023/12/28 06:14:35;;;;;;;21.10;9.50;;;;;;;4.03;72.33;99254.95;105329;1254;109966;-69
2023/12/28 06:17:03;;;;;;;18.60;9.00;;;;;;;4.01;72.35;99256.76;105174;1258;97856;-70
2023/12/28 06:19:31;;;;;;;19.80;9.00;;;;;;;4.02;72.45;99250.58;105330;1253;107555;-69
2023/12/28 06:22:00;;;;;;;21.70;9.00;;;;;;;4.04;72.37;99252.44;105407;1253;96631;-69
2023/12/28 06:24:28;;;;;;;19.10;8.40;;;;;;;4.04;72.47;99253.31;105122;1259;97938;-69
2023/12/28 06:26:56;;;;;;;22.00;9.30;;;;;;;4.05;72.39;99256.07;105407;1256;109558;-70
2023/12/28 06:29:24;;;;;;;21.20;9.40;;;;;;;4.07;72.50;99248.10;105283;1259;96552;-69
2023/12/28 06:31:52;;;;;;;20.30;9.00;;;;;;;4.08;72.46;99255.58;105315;1256;107468;-69
2023/12/28 06:34:20;;;;;;;24.30;10.20;;;;;;;4.10;72.33;99249.54;105099;1258;97967;-69
2023/12/28 06:36:48;;;;;;;20.80;9.10;;;;;;;4.12;72.42;99244.36;105342;1258;96690;-70
2023/12/28 06:39:16;;;;;;;19.30;8.70;;;;;;;4.14;72.18;99241.27;105599;1256;109958;-69
2023/12/28 06:41:48;;;;;;;22.60;10.20;;;;;;;4.14;72.24;99238.48;105405;1253;96602;-69
2023/12/28 06:44:16;;;;;;;20.00;8.90;;;;;;;4.15;72.44;99236.15;105201;1253;105627;-69
2023/12/28 06:46:44;;;;;;;20.80;9.00;;;;;;;4.16;72.48;99234.52;105394;1257;96620;-70
2023/12/28 06:49:12;;;;;;;21.30;9.10;;;;;;;4.17;72.45;99240.80;105491;1257;96537;-69
2023/12/28 06:51:40;;;;;;;21.30;9.00;;;;;;;4.17;72.53;99240.12;105214;1270;109518;-69
2023/12/28 06:54:07;;;;;;;20.20;9.00;;;;;;;4.17;72.38;99239.20;105321;1253;96638;-70
2023/12/28 06:56:35;;;;;;;23.90;9.90;;;;;;;4.19;72.33;99244.42;105439;1257;108178;-69
2023/12/28 06:59:03;;;;;;;19.30;9.00;;;;;;;4.21;72.48;99240.46;105357;1260;96719;-69
2023/12/28 07:01:31;;;;;;;23.80;11.20;;;;;;;4.25;72.61;99249.59;105653;1257;96817;-69
2023/12/28 07:03:59;;;;;;;23.30;11.20;;;;;;;4.27;72.76;99251.42;105335;1257;108950;-71
2023/12/28 07:06:27;;;;;;;19.00;9.20;;;;;;;4.30;72.69;99249.73;105678;1257;96628;-70
2023/12/28 07:08:55;;;;;;;22.10;9.70;;;;;;;4.33;72.71;99242.74;105646;1253;107301;-69
2023/12/28 07:11:23;;;;;;;20.70;9.20;;;;;;;4.35;72.76;99240.90;105346;1253;97954;-70
2023/12/28 07:13:51;;;;;;;20.70;8.90;;;;;;;4.39;72.71;99232.64;105521;1256;97445;-70
2023/12/28 07:16:18;;;;;;;22.70;9.50;;;;;;;4.44;72.73;99230.70;105393;1256;110135;-69
2023/12/28 07:18:46;;;;;;;21.00;9.20;;;;;;;4.47;72.65;99228.43;105434;1253;97649;-69
2023/12/28 07:21:14;;;;;;;24.00;9.60;;;;;;;4.51;72.52;99228.96;105583;1258;107672;-71
2023/12/28 07:23:48;;;;;;;22.70;10.00;;;;;;;4.54;72.58;99226.56;105081;1259;96642;-69
2023/12/28 07:26:16;;;;;;;21.40;9.40;;;;;;;4.57;72.77;99223.23;105153;1257;97180;-70
2023/12/28 07:28:47;;;;;;;20.60;9.60;;;;;;;4.60;72.62;99217.12;105431;1254;107880;-70
2023/12/28 07:31:26;;;;;;;22.20;10.30;;;;;;;4.66;72.72;99209.88;104967;1269;96789;-69
2023/12/28 07:33:54;;;;;;;23.70;10.20;;;;;;;4.72;72.64;99209.36;105296;1258;107203;-71
2023/12/28 07:36:22;;;;;;;22.80;10.60;;;;;;;4.76;72.55;99208.84;105321;1259;97465;-70
2023/12/28 07:38:50;;;;;;;21.40;10.10;;;;;;;4.80;72.62;99214.14;105283;1255;97419;-69
2023/12/28 07:41:18;;;;;;;21.00;9.40;;;;;;;4.84;72.53;99213.25;105196;1259;109882;-70
2023/12/28 07:43:46;;;;;;;26.70;11.80;;;;;;;4.88;72.49;99216.20;105363;1253;96625;-69
2023/12/28 07:46:14;;;;;;;24.50;11.70;;;;;;;4.91;72.49;99215.32;105170;1259;106091;-68
2023/12/28 07:48:41;;;;;;;24.10;10.50;;;;;;;4.96;72.39;99208.65;105387;1257;96551;-69
2023/12/28 07:51:13;;;;;;;23.90;10.60;;;;;;;4.99;72.42;99219.40;105457;1254;97547;-69
2023/12/28 07:53:47;;;;;;;19.70;9.60;;;;;;;5.02;72.57;99221.72;105332;1256;109586;-70
2023/12/28 07:56:15;;;;;;;21.10;9.60;;;;;;;5.07;72.38;99220.95;105316;1259;96672;-70
2023/12/28 07:58:44;;;;;;;23.00;10.10;;;;;;;5.11;72.42;99216.89;105427;1259;107455;-70
2023/12/28 08:01:12;;;;;;;20.20;9.10;;;;;;;5.15;72.24;99215.83;105479;1266;96611;-70
2023/12/28 08:03:40;;;;;;;23.10;9.30;;;;;;;5.19;72.26;99221.07;105291;1258;96523;-70
2023/12/28 08:06:08;;;;;;;25.10;10.50;;;;;;;5.25;72.27;99219.05;105248;1253;109664;-68
2023/12/28 08:08:37;;;;;;;19.00;8.50;;;;;;;5.30;72.14;99215.44;105401;1264;96604;-69
2023/12/28 08:11:05;;;;;;;21.10;8.90;;;;;;;5.35;72.16;99226.98;105218;1257;107725;-71
2023/12/28 08:13:33;;;;;;;22.50;9.40;;;;;;;5.40;71.97;99220.25;105436;1259;97821;-69
2023/12/28 08:16:01;;;;;;;25.50;9.90;;;;;;;5.45;71.83;99224.73;105427;1253;97020;-69
2023/12/28 08:18:29;;;;;;;18.70;8.40;;;;;;;5.49;71.93;99223.48;105434;1256;110087;-68
2023/12/28 08:20:57;;;;;;;21.80;9.10;;;;;;;5.53;71.93;99217.33;105361;1257;97149;-69
2023/12/28 08:23:25;;;;;;;20.20;8.40;;;;;;;5.57;71.96;99212.05;105184;1253;107621;-70
2023/12/28 08:25:53;;;;;;;23.30;8.30;;;;;;;5.61;71.89;99209.23;105100;1259;96578;-70
2023/12/28 08:28:21;;;;;;;20.20;8.70;;;;;;;5.63;71.97;99220.01;105411;1257;96540;-70
2023/12/28 08:30:49;;;;;;;18.40;8.60;;;;;;;5.68;71.73;99216.10;105472;1255;109668;-69
2023/12/28 08:33:17;;;;;;;19.90;8.80;;;;;;;5.73;71.62;99213.33;105099;1259;96530;-70
2023/12/28 08:35:45;;;;;;;21.70;8.60;;;;;;;5.78;71.48;99211.87;105276;1263;108259;-69
2023/12/28 08:38:13;;;;;;;19.00;8.00;;;;;;;5.82;71.56;99206.40;105454;1258;96651;-70
2023/12/28 08:40:41;;;;;;;17.70;8.10;;;;;;;5.86;71.36;99220.65;105202;1253;96631;-69
2023/12/28 08:43:10;;;;;;;19.60;7.90;;;;;;;5.90;71.70;99230.78;105288;1258;109983;-68
2023/12/28 08:45:38;;;;;;;19.20;8.30;;;;;;;5.94;71.28;99230.60;105209;1253;97821;-71
2023/12/28 08:48:06;;;;;;;19.90;8.60;;;;;;;5.99;71.11;99222.08;105251;1260;107649;-69
2023/12/28 08:50:35;;;;;;;19.30;8.40;;;;;;;6.03;71.45;99225.06;105399;1253;97493;-71
2023/12/28 08:53:03;;;;;;;20.70;8.30;;;;;;;6.06;71.04;99222.80;105370;1258;96616;-70
2023/12/28 08:55:31;;;;;;;23.10;8.80;;;;;;;6.10;71.23;99219.98;105227;1260;109818;-69
2023/12/28 08:57:59;;;;;;;19.10;8.50;;;;;;;6.15;70.86;99210.54;105413;1256;96626;-70
2023/12/28 09:00:28;;;;;;;21.70;9.00;;;;;;;6.21;70.94;99211.97;105357;1259;107559;-69
2023/12/28 09:02:56;;;;;;;23.50;8.30;;;;;;;6.25;70.96;99213.55;105480;1255;96728;-70
2023/12/28 09:05:24;;;;;;;26.20;11.20;;;;;;;6.30;71.00;99216.27;105477;1259;96617;-71
2023/12/28 09:07:52;;;;;;;26.00;10.00;;;;;;;6.34;71.24;99211.14;105489;1259;109494;-68
2023/12/28 09:10:21;;;;;;;24.30;10.00;;;;;;;6.38;71.18;99218.35;105469;1277;96524;-69
2023/12/28 09:12:49;;;;;;;21.90;8.70;;;;;;;6.42;70.88;99216.17;105320;1259;107663;-69
2023/12/28 09:15:17;;;;;;;20.90;9.30;;;;;;;6.46;70.60;99211.74;105733;1257;96644;-70
2023/12/28 09:17:45;;;;;;;20.40;8.80;;;;;;;6.51;70.16;99206.03;105516;1259;97624;-69
2023/12/28 09:20:13;;;;;;;18.10;7.50;;;;;;;6.56;70.26;99210.70;105626;1259;110006;-73
2023/12/28 09:22:42;;;;;;;20.90;8.60;;;;;;;6.62;70.62;99213.20;105658;1258;96638;-74
2023/12/28 09:25:10;;;;;;;21.60;9.80;;;;;;;6.68;70.95;99212.15;105214;1259;105703;-75
2023/12/28 09:27:37;;;;;;;23.00;9.00;;;;;;;6.73;70.87;99200.25;105480;1262;96614;-74
2023/12/28 09:30:06;;;;;;;23.90;9.30;;;;;;;6.78;70.47;99200.68;105457;1253;96617;-75
2023/12/28 09:32:37;;;;;;;21.00;9.10;;;;;;;6.82;70.39;99199.91;105330;1259;110004;-75
2023/12/28 09:35:06;;;;;;;19.90;8.80;;;;;;;6.88;70.43;99208.45;105113;1259;96662;-75
2023/12/28 09:37:33;;;;;;;21.90;8.60;;;;;;;6.91;70.56;99206.85;105500;1259;105937;-73
2023/12/28 09:40:03;;;;;;;21.30;8.20;;;;;;;6.96;70.38;99208.20;105089;1253;96671;-74
2023/12/28 09:42:44;;;;;;;19.50;8.10;;;;;;;6.99;70.38;99201.84;105508;1259;96691;-72
2023/12/28 09:45:12;;;;;;;19.00;9.00;;;;;;;7.00;69.31;99198.92;105377;1259;109952;-74
2023/12/28 09:47:42;;;;;;;22.40;9.10;;;;;;;7.05;70.06;99199.06;105163;1254;96674;-74
2023/12/28 09:50:12;;;;;;;22.90;9.20;;;;;;;7.07;69.69;99194.67;105380;1258;107528;-72
2023/12/28 09:52:41;;;;;;;18.70;7.70;;;;;;;7.11;69.86;99196.61;105324;1254;96625;-75
2023/12/28 09:55:09;;;;;;;20.60;7.90;;;;;;;7.13;69.28;99190.45;105625;1259;96663;-74
2023/12/28 09:57:37;;;;;;;21.70;8.40;;;;;;;7.18;69.62;99182.45;105424;1257;109585;-74
2023/12/28 10:00:06;;;;;;;20.30;7.60;;;;;;;7.22;69.48;99182.02;105521;1259;96585;-75
2023/12/28 10:02:36;;;;;;;19.40;7.40;;;;;;;7.26;70.05;99189.55;105435;1253;106635;-75
2023/12/28 10:05:06;;;;;;;20.40;7.90;;;;;;;7.29;69.73;99196.64;105684;1253;96644;-76
2023/12/28 10:07:41;;;;;;;18.90;7.50;;;;;;;7.34;69.31;99196.02;105304;1255;96588;-74
2023/12/28 10:10:10;;;;;;;16.30;6.80;;;;;;;7.40;70.12;99197.45;105395;1253;109784;-75
2023/12/28 10:12:38;;;;;;;20.30;7.60;;;;;;;7.43;70.11;99197.58;105602;1253;96605;-80
2023/12/28 10:15:15;;;;;;;17.10;7.30;;;;;;;7.48;69.72;99194.34;105113;1262;107000;-78
2023/12/28 10:17:43;;;;;;;20.00;7.60;;;;;;;7.52;70.14;99197.47;105219;1253;96563;-75
2023/12/28 10:20:12;;;;;;;18.50;7.60;;;;;;;7.56;70.06;99192.79;105399;1258;96626;-78
2023/12/28 10:22:40;;;;;;;17.90;7.60;;;;;;;7.59;69.58;99188.35;105194;1261;110141;-74
2023/12/28 10:25:09;;;;;;;18.00;7.20;;;;;;;7.65;69.46;99184.02;105487;1259;96590;-75
2023/12/28 10:27:42;;;;;;;18.50;8.00;;;;;;;7.69;69.33;99186.55;105334;1259;107641;-78
2023/12/28 10:30:13;;;;;;;18.70;7.90;;;;;;;7.72;68.89;99174.56;105471;1258;97547;-73
2023/12/28 10:32:41;;;;;;;19.20;8.00;;;;;;;7.76;69.02;99166.58;105256;1259;96692;-79
2023/12/28 10:35:10;;;;;;;21.00;8.00;;;;;;;7.78;69.11;99158.33;105337;1259;109748;-75
2023/12/28 10:37:41;;;;;;;19.10;8.10;;;;;;;7.81;68.92;99155.34;105663;1253;96725;-75
2023/12/28 10:40:15;;;;;;;19.70;7.70;;;;;;;7.83;68.85;99152.21;105372;1259;107657;-74
2023/12/28 10:42:49;;;;;;;19.30;7.80;;;;;;;7.86;68.89;99157.31;105375;1260;97840;-73
2023/12/28 10:45:24;;;;;;;19.00;8.50;;;;;;;7.91;69.46;99152.98;105437;1258;96604;-79
2023/12/28 10:48:09;;;;;;;18.00;7.10;;;;;;;7.94;69.08;99145.91;105228;1253;109881;-75
2023/12/28 10:50:45;;;;;;;16.80;6.70;;;;;;;7.98;68.35;99149.02;105564;1258;96606;-74
2023/12/28 10:53:38;;;;;;;17.60;7.20;;;;;;;8.03;69.02;99147.31;105119;1262;107468;-76
2023/12/28 10:56:16;;;;;;;19.30;7.90;;;;;;;8.04;68.76;99134.48;105449;1258;96619;-75
2023/12/28 10:58:58;;;;;;;16.80;7.60;;;;;;;8.06;68.63;99139.17;105571;1259;96689;-74
2023/12/28 11:03:37;;;;;;;20.30;7.50;;;;;;;8.12;66.93;99140.41;103387;1280;635908;-77
2023/12/28 11:06:08;;;;;;;23.20;8.50;;;;;;;8.14;67.60;99139.44;104420;1273;94274;-73
2023/12/28 11:08:38;;;;;;;16.70;6.70;;;;;;;8.17;67.71;99131.08;104515;1274;94855;-77
2023/12/28 11:11:07;;;;;;;17.40;6.80;;;;;;;8.19;67.04;99128.49;104721;1270;107104;-74
2023/12/28 11:13:35;;;;;;;13.70;5.80;;;;;;;8.20;66.93;99117.47;104785;1261;95823;-73
2023/12/28 11:16:05;;;;;;;17.80;6.30;;;;;;;8.23;67.03;99119.08;103201;1264;3322109;-73
2023/12/28 11:18:33;;;;;;;15.70;6.10;;;;;;;8.26;68.13;99116.77;105398;1260;94855;-74
2023/12/28 11:21:02;;;;;;;18.90;7.70;;;;;;;8.27;68.18;99113.17;105627;1257;94339;-79
2023/12/28 11:23:30;;;;;;;16.20;6.60;;;;;;;8.29;67.78;99114.96;105322;1254;107269;-76
2023/12/28 11:26:02;;;;;;;17.20;6.90;;;;;;;8.31;67.15;99110.27;105230;1263;95578;-75
2023/12/28 11:28:30;;;;;;;15.40;6.80;;;;;;;8.32;67.55;99110.36;104964;1259;107321;-77